Time;durP1;ratioP1;P1;durP2;ratioP2;P2;SDS_P1;SDS_P2;PMS_P1;PMS_P2;Temp;Humidity;BMP_temperature;BMP_pressure;BME280_temperature;BME280_humidity;BME280_pressure;Samples;Min_cycle;Max_cycle;Signal;HPM_P1;HPM_P2
2023/12/31 00:01:37;;;;;;;10.07;8.70;;;7.10;1.00;;;;;;5066805;28;20446;-71
2023/12/31 00:04:04;;;;;;;17.38;8.75;;;7.20;1.00;;;;;;5068696;27;20613;-73
2023/12/31 00:06:32;;;;;;;10.60;8.13;;;7.20;1.00;;;;;;5066555;28;20235;-71
2023/12/31 00:09:00;;;;;;;12.97;8.40;;;7.30;1.00;;;;;;5067771;28;20490;-72
2023/12/31 00:11:26;;;;;;;11.50;7.77;;;7.40;1.00;;;;;;5088890;27;20458;-71
2023/12/31 00:13:53;;;;;;;11.33;7.40;;;7.40;1.00;;;;;;5085989;28;20472;-75
2023/12/31 00:16:21;;;;;;;9.20;6.77;;;7.20;1.00;;;;;;5083808;28;20480;-73
2023/12/31 00:18:48;;;;;;;11.67;6.83;;;7.30;1.00;;;;;;5063750;28;20459;-73
2023/12/31 00:21:15;;;;;;;12.13;5.93;;;7.30;1.00;;;;;;5063577;28;21060;-72
2023/12/31 00:23:44;;;;;;;11.40;5.30;;;7.40;1.00;;;;;;5072146;28;20484;-72
2023/12/31 00:26:11;;;;;;;8.80;5.60;;;7.40;1.00;;;;;;5085667;27;20460;-72
2023/12/31 00:28:38;;;;;;;9.67;7.50;;;7.50;1.00;;;;;;5087200;27;20498;-71
2023/12/31 00:31:05;;;;;;;10.37;7.03;;;7.50;1.00;;;;;;5078279;27;20912;-72
2023/12/31 00:33:32;;;;;;;9.50;6.07;;;7.50;1.00;;;;;;5089035;27;20463;-74
2023/12/31 00:36:00;;;;;;;12.80;8.43;;;7.50;1.00;;;;;;5086509;28;20962;-71
2023/12/31 00:38:27;;;;;;;8.30;4.70;;;7.50;1.00;;;;;;5074710;28;20552;-71
2023/12/31 00:40:58;;;;;;;6.83;4.53;;;7.50;1.00;;;;;;5077809;28;20549;-70
2023/12/31 00:43:25;;;;;;;6.07;3.97;;;7.60;1.00;;;;;;5074744;28;20459;-72
2023/12/31 00:45:52;;;;;;;5.27;4.33;;;7.60;1.00;;;;;;5071811;28;20787;-71
2023/12/31 00:48:19;;;;;;;5.20;3.53;;;7.60;1.00;;;;;;5080264;27;21267;-71
2023/12/31 00:50:46;;;;;;;5.73;3.97;;;7.70;1.00;;;;;;5093043;27;20484;-71
2023/12/31 00:53:13;;;;;;;7.47;3.57;;;7.60;1.00;;;;;;5086364;27;20470;-71
2023/12/31 00:55:40;;;;;;;7.43;4.13;;;7.60;1.00;;;;;;5071466;28;20451;-70
2023/12/31 00:58:10;;;;;;;6.00;3.80;;;7.50;1.00;;;;;;5072562;27;20455;-71
2023/12/31 01:00:38;;;;;;;5.13;3.60;;;7.60;1.00;;;;;;5085408;27;20573;-70
2023/12/31 01:03:05;;;;;;;5.27;3.13;;;7.60;1.00;;;;;;5083583;27;21092;-73
2023/12/31 01:05:32;;;;;;;5.13;3.40;;;7.60;1.00;;;;;;5080959;27;20455;-74
2023/12/31 01:07:59;;;;;;;5.30;3.90;;;7.60;1.00;;;;;;5086159;27;20493;-71
2023/12/31 01:10:26;;;;;;;6.37;4.23;;;7.50;1.00;;;;;;5076992;27;20535;-74
2023/12/31 01:12:54;;;;;;;6.70;4.40;;;7.30;1.00;;;;;;5077504;27;20561;-71
2023/12/31 01:15:23;;;;;;;4.73;3.73;;;7.30;1.00;;;;;;5087781;27;20847;-71
2023/12/31 01:17:50;;;;;;;4.30;3.90;;;7.20;1.00;;;;;;5082295;27;20475;-71
2023/12/31 01:20:17;;;;;;;9.53;4.83;;;7.20;1.00;;;;;;5080070;28;20955;-70
2023/12/31 01:22:44;;;;;;;5.53;4.10;;;7.20;1.00;;;;;;5089289;27;20516;-71
2023/12/31 01:25:11;;;;;;;7.70;4.67;;;7.10;1.00;;;;;;5092678;27;20501;-71
2023/12/31 01:27:38;;;;;;;6.03;4.80;;;7.10;1.00;;;;;;5082236;28;20482;-70
2023/12/31 01:30:07;;;;;;;8.20;4.63;;;7.10;1.00;;;;;;5079896;27;20875;-71
2023/12/31 01:32:35;;;;;;;7.90;4.97;;;7.10;1.00;;;;;;5083227;28;22891;-72
2023/12/31 01:35:03;;;;;;;7.43;4.77;;;7.00;1.00;;;;;;5068915;27;20491;-72
2023/12/31 01:37:30;;;;;;;8.53;4.53;;;6.90;1.00;;;;;;5070258;28;20467;-71
2023/12/31 01:39:57;;;;;;;11.83;5.40;;;6.90;1.00;;;;;;5069597;28;20456;-71
2023/12/31 01:42:24;;;;;;;8.83;4.60;;;6.80;1.00;;;;;;5069389;28;20561;-71
2023/12/31 01:44:51;;;;;;;6.60;4.60;;;6.80;1.00;;;;;;5086227;27;20544;-71
2023/12/31 01:47:19;;;;;;;7.70;4.37;;;6.70;1.00;;;;;;5077851;27;20560;-71
2023/12/31 01:49:47;;;;;;;5.90;4.73;;;6.70;1.00;;;;;;5070101;28;20467;-70
2023/12/31 01:52:15;;;;;;;6.10;4.60;;;6.60;1.00;;;;;;5077700;28;20545;-70
2023/12/31 01:54:42;;;;;;;6.30;5.03;;;6.50;1.00;;;;;;5069342;28;20463;-70
2023/12/31 01:57:11;;;;;;;9.27;5.72;;;6.50;1.00;;;;;;5079738;28;21250;-70
2023/12/31 01:59:39;;;;;;;12.43;6.47;;;6.50;1.00;;;;;;5089106;27;20594;-70
2023/12/31 02:02:06;;;;;;;9.73;6.00;;;6.40;1.00;;;;;;5089374;27;20332;-74
2023/12/31 02:04:34;;;;;;;7.13;5.97;;;6.40;1.00;;;;;;5089493;27;20333;-75
2023/12/31 02:07:03;;;;;;;12.05;5.85;;;6.30;1.00;;;;;;5075015;27;20258;-74
2023/12/31 02:09:30;;;;;;;7.40;5.30;;;6.30;1.00;;;;;;5077440;27;20319;-73
2023/12/31 02:11:58;;;;;;;7.70;5.00;;;6.30;1.00;;;;;;5072824;27;21141;-75
2023/12/31 02:14:25;;;;;;;7.05;6.10;;;6.20;1.00;;;;;;5074615;27;20540;-74
2023/12/31 02:16:52;;;;;;;9.60;6.43;;;6.10;1.00;;;;;;5088972;27;21048;-75
2023/12/31 02:19:19;;;;;;;8.07;5.37;;;6.10;1.00;;;;;;5079864;27;20458;-75
2023/12/31 02:21:46;;;;;;;6.60;5.07;;;6.00;1.00;;;;;;5071342;28;20454;-76
2023/12/31 02:24:16;;;;;;;11.23;7.77;;;6.00;1.00;;;;;;5088137;27;20289;-74
2023/12/31 02:26:44;;;;;;;9.63;5.90;;;6.10;1.00;;;;;;5076977;27;20502;-74
2023/12/31 02:29:11;;;;;;;11.20;5.65;;;6.00;1.00;;;;;;5084175;27;20377;-73
2023/12/31 02:31:38;;;;;;;12.25;5.70;;;6.00;1.00;;;;;;5070777;28;20267;-75
2023/12/31 02:34:06;;;;;;;6.60;5.50;;;6.00;1.00;;;;;;5067231;28;20239;-73
2023/12/31 02:36:33;;;;;;;10.15;5.15;;;6.00;1.00;;;;;;5073008;28;20591;-73
2023/12/31 02:39:00;;;;;;;8.90;6.03;;;5.90;1.00;;;;;;5089625;28;20349;-74
2023/12/31 02:41:27;;;;;;;8.20;5.57;;;5.90;1.00;;;;;;5086209;28;20271;-74
2023/12/31 02:43:56;;;;;;;7.22;5.45;;;5.80;1.00;;;;;;5068066;28;20892;-74
2023/12/31 02:46:23;;;;;;;7.40;5.43;;;5.80;1.00;;;;;;5070443;28;20247;-73
2023/12/31 02:48:50;;;;;;;10.32;5.60;;;5.80;1.00;;;;;;5070164;28;20456;-74
2023/12/31 02:51:17;;;;;;;7.35;5.78;;;5.80;1.00;;;;;;5069720;28;20243;-75
2023/12/31 02:53:44;;;;;;;7.37;5.50;;;5.80;1.00;;;;;;5082793;27;20661;-73
2023/12/31 02:56:11;;;;;;;6.53;5.15;;;5.80;1.00;;;;;;5070963;28;21008;-74
2023/12/31 02:58:38;;;;;;;8.50;6.10;;;5.70;1.00;;;;;;5076680;28;20247;-73
2023/12/31 03:01:06;;;;;;;7.55;5.75;;;5.70;1.00;;;;;;5072010;28;20234;-74
2023/12/31 03:03:33;;;;;;;9.60;7.10;;;5.60;1.00;;;;;;5072199;28;20233;-74
2023/12/31 03:06:00;;;;;;;7.28;6.22;;;5.60;1.00;;;;;;5067155;27;20329;-76
2023/12/31 03:08:27;;;;;;;10.00;6.05;;;5.60;1.00;;;;;;5064851;28;20243;-74
2023/12/31 03:10:54;;;;;;;11.40;5.82;;;5.60;1.00;;;;;;5076667;28;20250;-75
2023/12/31 03:13:21;;;;;;;6.43;5.07;;;5.50;1.00;;;;;;5070255;28;20241;-76
2023/12/31 03:15:48;;;;;;;9.82;5.80;;;5.50;1.00;;;;;;5083339;28;20482;-75
2023/12/31 03:18:16;;;;;;;7.75;5.88;;;5.60;1.00;;;;;;5089676;28;20252;-79
2023/12/31 03:20:45;;;;;;;8.00;5.80;;;5.50;1.00;;;;;;5089408;27;20316;-75
2023/12/31 03:23:12;;;;;;;9.32;5.78;;;5.50;1.00;;;;;;5091378;28;20268;-74
2023/12/31 03:25:39;;;;;;;8.38;6.80;;;5.40;1.00;;;;;;5088052;27;20277;-74
2023/12/31 03:28:06;;;;;;;8.30;6.10;;;5.30;1.00;;;;;;5087771;28;20267;-75
2023/12/31 03:30:33;;;;;;;8.25;5.60;;;5.20;1.00;;;;;;5090844;28;20261;-75
2023/12/31 03:33:03;;;;;;;7.55;5.00;;;5.20;1.00;;;;;;5091305;28;21023;-76
2023/12/31 03:35:31;;;;;;;12.98;6.00;;;5.10;1.00;;;;;;5090717;27;20241;-76
2023/12/31 03:37:59;;;;;;;10.15;6.10;;;5.10;1.00;;;;;;5089842;28;20331;-75
2023/12/31 03:40:27;;;;;;;7.72;5.50;;;5.10;1.00;;;;;;5077612;28;20322;-74
2023/12/31 03:42:54;;;;;;;12.47;6.17;;;5.10;1.00;;;;;;5074783;28;20242;-74
2023/12/31 03:45:20;;;;;;;10.88;5.90;;;5.00;1.00;;;;;;5074019;27;21034;-74
2023/12/31 03:47:47;;;;;;;11.38;6.10;;;5.00;1.00;;;;;;5067877;28;20728;-75
2023/12/31 03:50:16;;;;;;;6.65;5.85;;;4.90;1.00;;;;;;5069685;27;20340;-76
2023/12/31 03:52:45;;;;;;;9.23;6.10;;;4.90;1.00;;;;;;5087415;27;20324;-75
2023/12/31 03:55:12;;;;;;;10.50;6.50;;;4.90;1.00;;;;;;5071968;27;20240;-73
2023/12/31 03:57:39;;;;;;;6.97;5.95;;;4.90;1.00;;;;;;5075976;28;20930;-76
2023/12/31 04:00:08;;;;;;;7.32;5.95;;;4.90;1.00;;;;;;5068665;28;20244;-74
2023/12/31 04:02:35;;;;;;;7.63;5.20;;;4.90;1.00;;;;;;5069527;28;20292;-74
2023/12/31 04:05:04;;;;;;;9.05;6.18;;;4.90;1.00;;;;;;5082896;28;20348;-74
2023/12/31 04:07:31;;;;;;;11.10;5.68;;;5.00;1.00;;;;;;5087654;28;20310;-76
2023/12/31 04:09:59;;;;;;;10.00;6.13;;;4.90;1.00;;;;;;5092445;28;20975;-73
2023/12/31 04:12:26;;;;;;;8.30;5.97;;;4.90;1.00;;;;;;5088501;27;20242;-73
2023/12/31 04:14:53;;;;;;;7.37;5.23;;;4.90;1.00;;;;;;5088383;27;20337;-74
2023/12/31 04:17:22;;;;;;;11.07;5.78;;;5.00;1.00;;;;;;5086553;28;20530;-74
2023/12/31 04:19:49;;;;;;;7.32;5.35;;;4.90;1.00;;;;;;5089450;27;20241;-74
2023/12/31 04:22:16;;;;;;;7.28;5.28;;;4.90;1.00;;;;;;5091601;27;20242;-70
2023/12/31 04:24:43;;;;;;;8.02;6.45;;;4.90;1.00;;;;;;5078579;28;20731;-71
2023/12/31 04:27:12;;;;;;;7.60;5.72;;;4.80;1.00;;;;;;5072596;28;20245;-74
2023/12/31 04:29:39;;;;;;;8.20;6.03;;;4.80;1.00;;;;;;5091112;27;20790;-70
2023/12/31 04:32:06;;;;;;;7.85;5.75;;;4.80;1.00;;;;;;5089311;27;20276;-71
2023/12/31 04:34:34;;;;;;;9.60;5.55;;;4.80;1.00;;;;;;5070827;27;20247;-73
2023/12/31 04:37:01;;;;;;;8.40;5.40;;;4.80;1.00;;;;;;5085595;28;20720;-71
2023/12/31 04:39:28;;;;;;;10.15;5.97;;;4.80;1.00;;;;;;5094007;27;20242;-70
2023/12/31 04:41:55;;;;;;;8.90;7.68;;;4.80;1.00;;;;;;5093526;28;20894;-70
2023/12/31 04:44:24;;;;;;;6.72;5.65;;;4.70;1.00;;;;;;5094099;27;20314;-76
2023/12/31 04:46:50;;;;;;;8.25;5.70;;;4.70;1.00;;;;;;5093878;28;20331;-71
2023/12/31 04:49:17;;;;;;;7.20;6.07;;;4.70;1.00;;;;;;5093523;28;20237;-71
2023/12/31 04:51:44;;;;;;;6.22;4.80;;;4.80;1.00;;;;;;5091282;27;20247;-76
2023/12/31 04:54:11;;;;;;;7.53;5.22;;;4.80;1.00;;;;;;5083956;28;20272;-73
2023/12/31 04:56:38;;;;;;;8.50;5.65;;;4.90;1.00;;;;;;5077657;27;20252;-76
2023/12/31 04:59:05;;;;;;;8.65;5.35;;;5.00;1.00;;;;;;5089206;27;20819;-74
2023/12/31 05:01:34;;;;;;;8.07;5.82;;;4.90;1.00;;;;;;5093506;28;20925;-75
2023/12/31 05:04:01;;;;;;;6.15;5.00;;;4.90;1.00;;;;;;5086415;27;20246;-74
2023/12/31 05:06:29;;;;;;;7.65;6.20;;;4.90;1.00;;;;;;5088009;27;21031;-75
2023/12/31 05:08:55;;;;;;;9.20;5.75;;;4.90;1.00;;;;;;5089814;27;20240;-75
2023/12/31 05:11:25;;;;;;;7.35;4.57;;;5.00;1.00;;;;;;5074798;27;20872;-75
2023/12/31 05:13:52;;;;;;;6.15;4.75;;;5.10;1.00;;;;;;5082780;27;20269;-75
2023/12/31 05:16:19;;;;;;;8.13;4.70;;;5.00;1.00;;;;;;5067439;28;21039;-75
2023/12/31 05:18:50;;;;;;;4.65;4.20;;;5.20;1.00;;;;;;5076285;28;21227;-74
2023/12/31 05:21:17;;;;;;;4.85;4.38;;;5.20;1.00;;;;;;5091349;27;20299;-74
2023/12/31 05:23:44;;;;;;;6.00;5.30;;;5.10;1.00;;;;;;5091845;27;21122;-73
2023/12/31 05:26:11;;;;;;;7.55;5.82;;;5.20;1.00;;;;;;5092982;28;20704;-74
2023/12/31 05:28:38;;;;;;;7.15;4.45;;;5.20;1.00;;;;;;5077763;28;20352;-74
2023/12/31 05:31:05;;;;;;;6.40;4.75;;;5.20;1.00;;;;;;5069016;27;20766;-75
2023/12/31 05:33:32;;;;;;;6.05;4.45;;;5.30;1.00;;;;;;5083430;27;21066;-73
2023/12/31 05:36:03;;;;;;;5.60;5.07;;;5.40;1.00;;;;;;5083101;27;20323;-74
2023/12/31 05:38:30;;;;;;;6.45;4.55;;;5.40;1.00;;;;;;5089604;27;20234;-76
2023/12/31 05:40:57;;;;;;;9.70;4.97;;;5.30;1.00;;;;;;5090739;27;20368;-75
2023/12/31 05:43:24;;;;;;;6.32;4.93;;;5.40;1.00;;;;;;5089087;27;20241;-74
2023/12/31 05:45:51;;;;;;;7.47;4.32;;;5.30;1.00;;;;;;5089618;28;20336;-75
2023/12/31 05:48:18;;;;;;;7.90;4.20;;;5.20;1.00;;;;;;5089423;27;20268;-75
2023/12/31 05:50:46;;;;;;;4.97;4.32;;;5.30;1.00;;;;;;5088882;28;20279;-75
2023/12/31 05:53:14;;;;;;;7.10;4.43;;;5.30;1.00;;;;;;5087189;27;20271;-76
2023/12/31 05:55:43;;;;;;;5.05;4.47;;;5.30;1.00;;;;;;5089582;27;20328;-74
2023/12/31 05:58:11;;;;;;;5.35;4.50;;;5.30;1.00;;;;;;5073591;28;21036;-76
2023/12/31 06:00:38;;;;;;;6.30;4.53;;;5.30;1.00;;;;;;5068570;28;20351;-76
2023/12/31 06:03:05;;;;;;;5.35;4.28;;;5.40;1.00;;;;;;5078605;28;20319;-74
2023/12/31 06:05:32;;;;;;;5.60;4.25;;;5.50;1.00;;;;;;5086733;27;20306;-74
2023/12/31 06:07:59;;;;;;;4.15;3.75;;;5.50;1.00;;;;;;5080798;27;20245;-74
2023/12/31 06:10:27;;;;;;;4.57;4.18;;;5.60;1.00;;;;;;5085146;28;20233;-77
2023/12/31 06:12:54;;;;;;;6.18;4.50;;;5.40;1.00;;;;;;5068873;28;20335;-74
2023/12/31 06:15:21;;;;;;;7.07;3.95;;;5.40;1.00;;;;;;5083676;27;20760;-74
2023/12/31 06:17:48;;;;;;;7.68;4.60;;;5.50;1.00;;;;;;5075221;28;20729;-74
2023/12/31 06:20:15;;;;;;;5.75;4.78;;;5.50;1.00;;;;;;5081321;28;20786;-74
2023/12/31 06:22:42;;;;;;;7.15;4.55;;;5.50;1.00;;;;;;5088567;27;20241;-74
2023/12/31 06:25:10;;;;;;;5.82;4.63;;;5.40;1.00;;;;;;5085641;27;20276;-76
2023/12/31 06:27:40;;;;;;;6.78;4.53;;;5.50;1.00;;;;;;5086802;27;20336;-75
2023/12/31 06:30:08;;;;;;;6.10;4.13;;;5.50;1.00;;;;;;5084605;27;20247;-74
2023/12/31 06:32:35;;;;;;;7.57;4.72;;;5.50;1.00;;;;;;5088093;27;20514;-74
2023/12/31 06:35:03;;;;;;;5.88;3.70;;;5.70;1.00;;;;;;5087757;27;20247;-74
2023/12/31 06:37:30;;;;;;;5.95;4.72;;;5.80;1.00;;;;;;5087580;27;20244;-74
2023/12/31 06:39:56;;;;;;;4.53;3.97;;;5.70;1.00;;;;;;5085769;27;20240;-75
2023/12/31 06:42:23;;;;;;;7.90;4.43;;;5.70;1.00;;;;;;5085839;28;20312;-73
2023/12/31 06:44:52;;;;;;;4.43;3.95;;;5.80;1.00;;;;;;5081078;27;20787;-73
2023/12/31 06:47:19;;;;;;;8.02;3.55;;;5.70;1.00;;;;;;5063341;28;20349;-72
2023/12/31 06:49:46;;;;;;;5.00;4.22;;;5.80;1.00;;;;;;5078289;27;20238;-72
2023/12/31 06:52:13;;;;;;;5.22;3.92;;;5.80;1.00;;;;;;5073176;27;20716;-72
2023/12/31 06:54:41;;;;;;;5.22;4.35;;;5.90;1.00;;;;;;5086973;27;20724;-73
2023/12/31 06:57:10;;;;;;;7.10;4.00;;;6.00;1.00;;;;;;5077217;28;20268;-73
2023/12/31 06:59:37;;;;;;;4.82;4.10;;;6.10;1.00;;;;;;5067207;28;20749;-72
2023/12/31 07:02:06;;;;;;;7.15;5.53;;;6.00;1.00;;;;;;5067057;27;20269;-70
2023/12/31 07:04:33;;;;;;;7.07;4.40;;;5.80;1.00;;;;;;5067818;27;20796;-71
2023/12/31 07:07:01;;;;;;;5.07;3.58;;;5.80;1.00;;;;;;5067971;27;20269;-74
2023/12/31 07:09:29;;;;;;;5.30;3.78;;;5.90;1.00;;;;;;5086451;28;20619;-72
2023/12/31 07:11:57;;;;;;;5.03;3.38;;;5.80;1.00;;;;;;5083772;27;20245;-72
2023/12/31 07:14:24;;;;;;;5.85;4.75;;;5.80;1.00;;;;;;5086262;27;20249;-73
2023/12/31 07:16:51;;;;;;;3.88;3.50;;;5.80;1.00;;;;;;5080129;27;20293;-72
2023/12/31 07:19:20;;;;;;;5.97;4.05;;;5.80;1.00;;;;;;5082685;27;20241;-74
2023/12/31 07:21:47;;;;;;;6.00;3.85;;;5.80;1.00;;;;;;5086736;28;20245;-70
2023/12/31 07:24:15;;;;;;;6.13;4.97;;;5.80;1.00;;;;;;5085229;27;20256;-71
2023/12/31 07:26:42;;;;;;;4.38;3.85;;;5.80;1.00;;;;;;5087298;27;20338;-71
2023/12/31 07:29:09;;;;;;;5.72;4.28;;;5.80;1.00;;;;;;5085110;27;20332;-71
2023/12/31 07:31:36;;;;;;;6.07;3.88;;;5.80;1.00;;;;;;5074019;27;20239;-71
2023/12/31 07:34:04;;;;;;;6.57;3.75;;;5.80;1.00;;;;;;5076119;27;20331;-71
2023/12/31 07:36:32;;;;;;;6.47;4.32;;;5.90;1.00;;;;;;5087977;27;20323;-70
2023/12/31 07:38:59;;;;;;;4.75;4.20;;;5.80;1.00;;;;;;5086757;27;20329;-70
2023/12/31 07:41:25;;;;;;;6.18;4.45;;;5.80;1.00;;;;;;5084364;28;20827;-70
2023/12/31 07:43:52;;;;;;;5.65;4.07;;;5.80;1.00;;;;;;5085676;28;20244;-70
2023/12/31 07:46:19;;;;;;;5.13;3.95;;;5.80;1.00;;;;;;5067332;28;20430;-70
2023/12/31 07:48:46;;;;;;;5.95;3.85;;;5.90;1.00;;;;;;5079990;28;20234;-70
2023/12/31 07:51:13;;;;;;;3.83;3.38;;;6.00;1.00;;;;;;5086441;27;20320;-71
2023/12/31 07:53:41;;;;;;;5.22;4.00;;;6.00;1.00;;;;;;5086847;27;20315;-70
2023/12/31 07:56:08;;;;;;;4.68;4.18;;;6.00;1.00;;;;;;5092817;27;20247;-70
2023/12/31 07:58:35;;;;;;;4.22;3.67;;;6.00;1.00;;;;;;5089473;27;20354;-72
2023/12/31 08:01:03;;;;;;;4.25;3.78;;;6.00;1.00;;;;;;5092091;27;20725;-70
2023/12/31 08:03:30;;;;;;;6.70;4.72;;;6.10;1.00;;;;;;5090704;28;20237;-72
2023/12/31 08:05:57;;;;;;;6.15;3.80;;;6.10;1.00;;;;;;5090238;28;20248;-72
2023/12/31 08:08:24;;;;;;;5.15;4.70;;;6.10;1.00;;;;;;5091385;28;20234;-74
2023/12/31 08:10:53;;;;;;;6.65;3.70;;;6.20;1.00;;;;;;5090655;27;20327;-70
2023/12/31 08:13:20;;;;;;;6.40;4.20;;;6.20;1.00;;;;;;5092095;27;20237;-71
2023/12/31 08:15:47;;;;;;;5.25;3.95;;;6.10;1.00;;;;;;5089347;28;20267;-75
2023/12/31 08:18:15;;;;;;;4.68;3.17;;;6.10;1.00;;;;;;5087835;28;20239;-72
2023/12/31 08:20:42;;;;;;;3.40;3.15;;;6.20;1.00;;;;;;5091838;27;20241;-71
2023/12/31 08:23:09;;;;;;;3.30;2.97;;;6.20;1.00;;;;;;5089454;27;20424;-70
2023/12/31 08:25:36;;;;;;;8.18;5.45;;;6.30;1.00;;;;;;5093417;28;20285;-70
2023/12/31 08:28:05;;;;;;;4.63;3.22;;;6.30;1.00;;;;;;5091013;27;20322;-71
2023/12/31 08:30:34;;;;;;;4.15;3.75;;;6.40;1.00;;;;;;5091328;27;21780;-70
2023/12/31 08:33:01;;;;;;;4.22;3.25;;;6.50;1.00;;;;;;5092427;28;20295;-71
2023/12/31 08:35:28;;;;;;;5.63;3.63;;;6.60;1.00;;;;;;5088347;28;20238;-70
2023/12/31 08:37:55;;;;;;;7.80;4.00;;;6.70;1.00;;;;;;5081827;28;21181;-70
2023/12/31 08:40:22;;;;;;;5.03;3.80;;;6.60;1.00;;;;;;5089773;28;20586;-72
2023/12/31 08:42:49;;;;;;;3.80;3.05;;;6.60;1.00;;;;;;5090392;27;20826;-71
2023/12/31 08:45:17;;;;;;;5.55;4.40;;;6.60;1.00;;;;;;5090364;27;20322;-72
2023/12/31 08:47:44;;;;;;;5.18;3.90;;;6.70;1.00;;;;;;5090177;28;20246;-71
2023/12/31 08:50:11;;;;;;;6.50;3.90;;;6.80;1.00;;;;;;5091651;28;20247;-72
2023/12/31 08:52:41;;;;;;;8.43;4.15;;;6.90;1.00;;;;;;5083458;27;20291;-71
2023/12/31 08:55:08;;;;;;;6.53;4.53;;;6.90;1.00;;;;;;5088714;27;20735;-70
2023/12/31 08:57:35;;;;;;;5.13;3.83;;;7.00;1.00;;;;;;5088878;27;20457;-72
2023/12/31 09:00:03;;;;;;;8.13;7.33;;;6.90;1.00;;;;;;5080633;27;20556;-71
2023/12/31 09:02:31;;;;;;;5.93;4.50;;;6.90;1.00;;;;;;5085282;28;20453;-73
2023/12/31 09:04:58;;;;;;;10.97;4.67;;;7.00;1.00;;;;;;5087056;28;21348;-74
2023/12/31 09:07:26;;;;;;;5.90;3.97;;;7.10;1.00;;;;;;5088053;28;20500;-71
2023/12/31 09:09:53;;;;;;;4.78;3.45;;;7.20;1.00;;;;;;5090070;27;21135;-72
2023/12/31 09:12:20;;;;;;;4.82;3.88;;;7.20;1.00;;;;;;5089299;27;20243;-74
2023/12/31 09:14:47;;;;;;;5.27;4.03;;;7.20;1.00;;;;;;5086958;28;20260;-72
2023/12/31 09:17:14;;;;;;;3.77;3.40;;;7.30;1.00;;;;;;5074783;27;20489;-72
2023/12/31 09:19:42;;;;;;;4.13;3.53;;;7.40;1.00;;;;;;5090149;27;20559;-72
2023/12/31 09:22:09;;;;;;;3.57;3.10;;;7.40;1.00;;;;;;5079048;28;20475;-72
2023/12/31 09:24:36;;;;;;;5.73;3.43;;;7.50;1.00;;;;;;5075890;27;20493;-72
2023/12/31 09:27:03;;;;;;;3.97;3.37;;;7.70;1.00;;;;;;5090053;27;20524;-72
2023/12/31 09:29:31;;;;;;;10.17;3.40;;;7.80;1.00;;;;;;5087264;28;20570;-74
2023/12/31 09:31:58;;;;;;;5.20;3.77;;;8.00;1.00;;;;;;5089040;28;20450;-73
2023/12/31 09:34:25;;;;;;;4.20;3.43;;;8.00;1.00;;;;;;5083824;27;20456;-73
2023/12/31 09:36:53;;;;;;;4.63;3.33;;;8.00;1.00;;;;;;5083315;27;20537;-74
2023/12/31 09:39:20;;;;;;;6.47;3.67;;;8.00;1.00;;;;;;5069589;28;21633;-74
2023/12/31 09:41:50;;;;;;;3.67;2.90;;;8.10;1.00;;;;;;5067571;27;20455;-72
2023/12/31 09:44:19;;;;;;;3.57;3.27;;;8.10;1.00;;;;;;5068240;27;20544;-73
2023/12/31 09:46:59;;;;;;;4.70;3.70;;;8.10;1.00;;;;;;5089800;28;20460;-73
2023/12/31 09:49:26;;;;;;;5.37;3.30;;;8.20;1.00;;;;;;5078120;28;20915;-72
2023/12/31 09:51:54;;;;;;;3.60;3.30;;;8.20;1.00;;;;;;5070439;28;20483;-73
2023/12/31 09:54:22;;;;;;;6.33;3.67;;;8.30;1.00;;;;;;5089946;27;20456;-69
2023/12/31 09:56:51;;;;;;;3.97;3.57;;;8.30;1.00;;;;;;5088231;28;20463;-72
2023/12/31 09:59:20;;;;;;;5.73;4.23;;;8.20;1.00;;;;;;5086377;27;20477;-70
2023/12/31 10:01:47;;;;;;;4.90;3.50;;;8.10;1.00;;;;;;5080735;27;20485;-77
2023/12/31 10:04:15;;;;;;;4.47;4.07;;;8.20;1.00;;;;;;5085156;27;20885;-73
2023/12/31 10:06:43;;;;;;;3.40;3.10;;;8.20;1.00;;;;;;5084336;27;20461;-72
2023/12/31 10:09:14;;;;;;;4.13;3.73;;;8.20;1.00;;;;;;5066250;27;20542;-71
2023/12/31 10:11:43;;;;;;;4.00;3.13;;;8.20;1.00;;;;;;5076046;28;20493;-71
2023/12/31 10:14:12;;;;;;;3.90;3.43;;;8.10;1.00;;;;;;5085938;27;21290;-70
2023/12/31 10:16:43;;;;;;;6.53;4.30;;;8.10;1.00;;;;;;5087893;27;23224;-73
2023/12/31 10:19:10;;;;;;;5.00;2.90;;;8.20;1.00;;;;;;5088865;27;20497;-72
2023/12/31 10:21:37;;;;;;;4.63;3.20;;;8.10;1.00;;;;;;5089886;27;20466;-71
2023/12/31 10:24:05;;;;;;;4.67;3.37;;;8.20;1.00;;;;;;5088363;27;20547;-71
2023/12/31 10:26:34;;;;;;;5.10;3.17;;;8.20;1.00;;;;;;5085731;27;20462;-70
2023/12/31 10:29:01;;;;;;;4.80;4.30;;;8.20;1.00;;;;;;5085580;27;20554;-72
2023/12/31 10:31:28;;;;;;;3.90;3.60;;;8.10;1.00;;;;;;5088539;27;20538;-71
2023/12/31 10:33:55;;;;;;;4.60;3.30;;;8.20;1.00;;;;;;5103975;27;20557;-72
2023/12/31 10:36:23;;;;;;;5.63;3.17;;;8.10;1.00;;;;;;5076966;27;20447;-69
2023/12/31 10:38:51;;;;;;;3.23;2.93;;;8.10;1.00;;;;;;5059150;28;21356;-72
2023/12/31 10:41:22;;;;;;;6.97;3.37;;;8.20;1.00;;;;;;5065151;27;22078;-73
2023/12/31 10:43:50;;;;;;;5.10;4.40;;;8.20;1.00;;;;;;5080583;27;20478;-70
2023/12/31 10:46:18;;;;;;;6.73;3.73;;;8.30;1.00;;;;;;5086004;27;20540;-71
2023/12/31 10:48:50;;;;;;;5.33;3.60;;;8.20;1.00;;;;;;5080782;28;21377;-71
2023/12/31 10:51:26;;;;;;;3.73;3.33;;;8.40;1.00;;;;;;5085582;27;21302;-71
2023/12/31 10:53:58;;;;;;;3.97;3.00;;;8.50;1.00;;;;;;5071916;28;20970;-70
2023/12/31 10:56:28;;;;;;;3.63;3.10;;;8.50;1.00;;;;;;5085872;27;20481;-71
2023/12/31 10:58:59;;;;;;;3.93;3.30;;;8.50;1.00;;;;;;5087363;27;20556;-70
2023/12/31 11:01:26;;;;;;;3.40;3.03;;;8.40;1.00;;;;;;5088079;27;20543;-71
2023/12/31 11:03:54;;;;;;;4.53;4.10;;;8.50;1.00;;;;;;5081010;27;22051;-70
2023/12/31 11:06:21;;;;;;;4.73;3.40;;;8.60;1.00;;;;;;5087399;27;20439;-72
2023/12/31 11:08:49;;;;;;;4.10;3.13;;;8.70;1.00;;;;;;5086537;27;21948;-69
2023/12/31 11:11:19;;;;;;;4.73;2.77;;;8.80;1.00;;;;;;5087134;27;20832;-70
2023/12/31 11:13:51;;;;;;;12.50;4.10;;;8.80;1.00;;;;;;5087892;27;20464;-70
2023/12/31 11:16:36;;;;;;;5.00;3.20;;;8.90;1.00;;;;;;5080182;27;20460;-71
2023/12/31 11:19:32;;;;;;;3.40;2.87;;;8.90;1.00;;;;;;5081855;27;20497;-71
2023/12/31 11:22:13;;;;;;;2.87;2.60;;;9.20;1.00;;;;;;5084799;28;20516;-71
2023/12/31 11:24:39;;;;;;;4.43;2.70;;;9.10;1.00;;;;;;5073791;28;20485;-71
2023/12/31 11:27:19;;;;;;;3.43;3.13;;;9.20;1.00;;;;;;5077377;28;20546;-73
2023/12/31 11:29:49;;;;;;;3.17;2.67;;;9.20;1.00;;;;;;5085374;27;20477;-72
2023/12/31 11:32:18;;;;;;;4.10;3.00;;;9.30;1.00;;;;;;5084207;27;20470;-74
2023/12/31 11:34:45;;;;;;;3.50;2.80;;;9.30;1.00;;;;;;5083554;27;20484;-71
2023/12/31 11:37:12;;;;;;;3.83;3.30;;;9.20;1.00;;;;;;5062531;28;21330;-73
2023/12/31 11:39:39;;;;;;;3.20;2.90;;;9.20;1.00;;;;;;5078333;28;20574;-73
2023/12/31 11:42:10;;;;;;;3.63;3.00;;;9.30;1.00;;;;;;5085085;27;20690;-73
2023/12/31 11:44:38;;;;;;;4.90;2.83;;;9.30;1.00;;;;;;5087331;28;20462;-73
2023/12/31 11:47:12;;;;;;;3.60;2.73;;;9.30;1.00;;;;;;5085727;28;20571;-71
2023/12/31 11:49:45;;;;;;;3.80;2.93;;;9.20;1.00;;;;;;5083897;27;20561;-71
2023/12/31 11:52:13;;;;;;;4.37;3.17;;;9.10;1.00;;;;;;5085041;27;20891;-71
2023/12/31 11:54:41;;;;;;;7.00;3.87;;;9.00;1.00;;;;;;5079807;28;20459;-71
2023/12/31 11:57:13;;;;;;;8.47;3.73;;;9.10;1.00;;;;;;5074171;28;20458;-71
2023/12/31 11:59:44;;;;;;;3.20;2.90;;;9.00;1.00;;;;;;5080512;27;20492;-73
2023/12/31 12:02:11;;;;;;;6.10;3.13;;;9.00;1.00;;;;;;5066274;28;20529;-72
2023/12/31 12:04:38;;;;;;;3.90;3.07;;;9.00;1.00;;;;;;5058118;27;20468;-73
2023/12/31 12:07:06;;;;;;;5.30;2.90;;;9.00;1.00;;;;;;5093785;27;20536;-70
2023/12/31 12:09:34;;;;;;;5.10;3.17;;;9.00;1.00;;;;;;5084074;27;20475;-69
2023/12/31 12:12:02;;;;;;;4.37;3.60;;;9.00;1.00;;;;;;5082480;27;20508;-69
2023/12/31 12:14:29;;;;;;;3.73;3.13;;;9.00;1.00;;;;;;5086334;27;21035;-69
2023/12/31 12:16:56;;;;;;;4.83;2.90;;;9.00;1.00;;;;;;5075177;27;20471;-72
2023/12/31 12:19:23;;;;;;;3.83;3.20;;;9.00;1.00;;;;;;5067126;28;20452;-70
2023/12/31 12:21:51;;;;;;;3.30;3.00;;;9.00;1.00;;;;;;5049476;28;21079;-69
2023/12/31 12:24:19;;;;;;;5.90;3.73;;;9.00;1.00;;;;;;5062626;28;20465;-70
2023/12/31 12:26:48;;;;;;;4.20;3.80;;;9.00;1.00;;;;;;5065368;27;20467;-72
2023/12/31 12:29:16;;;;;;;4.53;3.53;;;9.10;1.00;;;;;;5082766;27;20490;-71
2023/12/31 12:31:46;;;;;;;5.30;3.77;;;9.10;1.00;;;;;;5064456;28;20456;-71
2023/12/31 12:34:15;;;;;;;5.00;3.80;;;9.00;1.00;;;;;;5065721;27;20482;-70
2023/12/31 12:36:43;;;;;;;3.90;3.50;;;9.00;1.00;;;;;;5083421;27;20442;-70
2023/12/31 12:39:21;;;;;;;5.70;5.17;;;9.10;1.00;;;;;;5082857;27;20575;-71
2023/12/31 12:41:49;;;;;;;5.43;4.27;;;9.10;1.00;;;;;;5087556;27;20461;-72
2023/12/31 12:44:17;;;;;;;6.40;4.63;;;9.20;1.00;;;;;;5079966;27;20482;-69
2023/12/31 12:46:46;;;;;;;12.03;3.80;;;9.30;1.00;;;;;;5075325;28;20471;-71
2023/12/31 12:49:14;;;;;;;6.53;5.00;;;9.30;1.00;;;;;;5068191;28;20468;-70
2023/12/31 12:51:42;;;;;;;5.87;4.50;;;9.20;1.00;;;;;;5089618;28;20479;-70
2023/12/31 12:54:09;;;;;;;5.50;4.80;;;9.30;1.00;;;;;;5087256;28;20997;-70
2023/12/31 12:56:40;;;;;;;6.73;5.50;;;9.30;1.00;;;;;;5081141;28;20544;-74
2023/12/31 12:59:07;;;;;;;4.87;4.37;;;9.30;1.00;;;;;;5087394;27;20459;-73
2023/12/31 13:01:36;;;;;;;7.33;4.83;;;9.20;1.00;;;;;;5083510;27;20962;-72
2023/12/31 13:04:10;;;;;;;4.90;3.70;;;9.30;1.00;;;;;;5076946;27;20456;-74
2023/12/31 13:06:37;;;;;;;8.43;4.47;;;9.30;1.00;;;;;;5067085;28;20447;-72
2023/12/31 13:09:06;;;;;;;4.53;3.90;;;9.20;1.00;;;;;;5083564;28;21242;-72
2023/12/31 13:11:33;;;;;;;4.87;3.93;;;9.10;1.00;;;;;;5085952;27;20456;-76